Time;durP1;ratioP1;P1;durP2;ratioP2;P2;SDS_P1;SDS_P2;PMS_P1;PMS_P2;Temp;Humidity;BMP_temperature;BMP_pressure;BME280_temperature;BME280_humidity;BME280_pressure;Samples;Min_cycle;Max_cycle;Signal;HPM_P1;HPM_P2
2024/01/21 00:00:14;;;;;;;7.95;7.15;;;;;;;;;;5138147;27;20249;-63
2024/01/21 00:02:42;;;;;;;7.53;6.82;;;;;;;;;;5138213;27;20233;-64
2024/01/21 00:05:10;;;;;;;7.88;7.07;;;;;;;;;;5138336;27;20597;-64
2024/01/21 00:07:39;;;;;;;7.57;6.88;;;;;;;;;;5138198;27;20217;-63
2024/01/21 00:10:08;;;;;;;7.90;7.13;;;;;;;;;;5138287;27;20356;-63
2024/01/21 00:12:36;;;;;;;7.65;6.85;;;;;;;;;;5138340;27;20210;-63
2024/01/21 00:15:05;;;;;;;7.25;6.47;;;;;;;;;;5138264;27;20202;-63
2024/01/21 00:17:33;;;;;;;7.53;6.78;;;;;;;;;;5138314;27;20224;-63
2024/01/21 00:20:01;;;;;;;7.18;6.47;;;;;;;;;;5138066;27;20213;-63
2024/01/21 00:22:29;;;;;;;7.30;6.28;;;;;;;;;;5138232;27;20233;-63
2024/01/21 00:24:56;;;;;;;7.55;6.40;;;;;;;;;;5138158;28;20301;-63
2024/01/21 00:27:24;;;;;;;7.65;6.68;;;;;;;;;;5138054;28;20213;-63
2024/01/21 00:29:51;;;;;;;6.82;6.13;;;;;;;;;;5138388;27;20210;-64
2024/01/21 00:32:20;;;;;;;7.00;6.30;;;;;;;;;;5137940;27;20304;-63
2024/01/21 00:34:48;;;;;;;6.28;5.68;;;;;;;;;;5137702;27;20202;-63
2024/01/21 00:37:16;;;;;;;7.07;6.00;;;;;;;;;;5139728;27;20285;-63
2024/01/21 00:39:43;;;;;;;6.93;6.32;;;;;;;;;;5142692;27;20221;-64
2024/01/21 00:42:11;;;;;;;6.60;6.00;;;;;;;;;;5142233;27;20566;-63
2024/01/21 00:44:40;;;;;;;6.43;5.82;;;;;;;;;;5142299;27;20209;-63
2024/01/21 00:47:08;;;;;;;6.40;5.80;;;;;;;;;;5124039;27;20293;-63
2024/01/21 00:49:40;;;;;;;6.20;5.60;;;;;;;;;;5141772;27;20224;-63
2024/01/21 00:52:08;;;;;;;6.00;5.40;;;;;;;;;;5142291;27;20266;-63
2024/01/21 00:54:36;;;;;;;6.18;5.57;;;;;;;;;;5142257;27;20492;-63
2024/01/21 00:57:03;;;;;;;6.30;5.70;;;;;;;;;;5142226;27;20213;-63
2024/01/21 00:59:31;;;;;;;6.40;5.80;;;;;;;;;;5141972;27;20206;-63
2024/01/21 01:01:58;;;;;;;6.18;5.47;;;;;;;;;;5141601;27;20237;-63
2024/01/21 01:04:26;;;;;;;5.90;5.30;;;;;;;;;;5141801;27;20222;-63
2024/01/21 01:06:55;;;;;;;5.82;5.32;;;;;;;;;;5141540;27;20203;-63
2024/01/21 01:09:23;;;;;;;6.03;5.43;;;;;;;;;;5141660;27;20206;-63
2024/01/21 01:11:50;;;;;;;6.00;5.38;;;;;;;;;;5141204;27;20206;-63
2024/01/21 01:14:18;;;;;;;6.15;5.55;;;;;;;;;;5141419;27;20199;-63
2024/01/21 01:16:45;;;;;;;5.65;5.13;;;;;;;;;;5141494;27;20304;-63
2024/01/21 01:19:13;;;;;;;6.00;5.43;;;;;;;;;;5141897;27;20535;-63
2024/01/21 01:21:41;;;;;;;5.68;5.18;;;;;;;;;;5141455;27;20529;-64
2024/01/21 01:24:10;;;;;;;5.38;4.88;;;;;;;;;;5141478;27;20233;-63
2024/01/21 01:26:38;;;;;;;5.43;4.93;;;;;;;;;;5140978;27;20567;-63
2024/01/21 01:29:05;;;;;;;5.78;5.10;;;;;;;;;;5141481;27;20213;-63
2024/01/21 01:31:33;;;;;;;5.43;4.93;;;;;;;;;;5141372;27;20206;-63
2024/01/21 01:34:01;;;;;;;5.25;4.78;;;;;;;;;;5140938;27;20199;-63
2024/01/21 01:36:28;;;;;;;5.43;4.93;;;;;;;;;;5140801;27;20202;-64
2024/01/21 01:38:56;;;;;;;6.00;5.40;;;;;;;;;;5141140;27;20617;-64
2024/01/21 01:41:25;;;;;;;5.32;4.82;;;;;;;;;;5141125;27;20202;-63
2024/01/21 01:43:52;;;;;;;5.68;5.10;;;;;;;;;;5140912;27;20640;-63
2024/01/21 01:46:20;;;;;;;5.65;5.07;;;;;;;;;;5140848;27;20587;-63
2024/01/21 01:48:48;;;;;;;5.88;5.38;;;;;;;;;;5139856;27;20209;-63
2024/01/21 01:51:15;;;;;;;5.38;4.80;;;;;;;;;;5141326;27;20202;-63
2024/01/21 01:53:43;;;;;;;5.57;5.00;;;;;;;;;;5141365;27;20198;-63
2024/01/21 01:56:11;;;;;;;5.45;4.95;;;;;;;;;;5141156;27;20213;-63
2024/01/21 01:58:41;;;;;;;5.72;5.15;;;;;;;;;;5141041;27;20202;-63
2024/01/21 02:01:09;;;;;;;5.53;4.70;;;;;;;;;;5141064;27;20583;-64
2024/01/21 02:03:36;;;;;;;5.20;4.70;;;;;;;;;;5140720;27;20249;-63
2024/01/21 02:06:04;;;;;;;4.78;4.38;;;;;;;;;;5140998;27;20216;-63
2024/01/21 02:08:31;;;;;;;5.13;4.65;;;;;;;;;;5140799;27;20569;-63
2024/01/21 02:10:59;;;;;;;5.13;4.63;;;;;;;;;;5140852;27;20209;-63
2024/01/21 02:13:29;;;;;;;5.55;4.97;;;;;;;;;;5140839;27;20481;-64
2024/01/21 02:16:00;;;;;;;5.00;4.50;;;;;;;;;;5140378;27;20214;-63
2024/01/21 02:18:27;;;;;;;5.25;4.75;;;;;;;;;;5140673;27;20210;-63
2024/01/21 02:20:55;;;;;;;4.97;4.47;;;;;;;;;;5140546;27;20231;-63
2024/01/21 02:23:24;;;;;;;5.07;4.55;;;;;;;;;;5139915;27;20230;-63
2024/01/21 02:25:52;;;;;;;5.07;4.60;;;;;;;;;;5139042;27;20201;-63
2024/01/21 02:28:20;;;;;;;5.40;4.90;;;;;;;;;;5139894;27;20210;-63
2024/01/21 02:30:48;;;;;;;5.63;5.03;;;;;;;;;;5139868;27;20203;-63
2024/01/21 02:33:15;;;;;;;5.20;4.70;;;;;;;;;;5140164;27;20205;-63
2024/01/21 02:35:43;;;;;;;5.45;4.53;;;;;;;;;;5140259;27;20202;-63
2024/01/21 02:38:11;;;;;;;4.68;4.28;;;;;;;;;;5140119;27;20202;-63
2024/01/21 02:40:41;;;;;;;4.20;3.80;;;;;;;;;;5140180;27;20654;-63
2024/01/21 02:43:08;;;;;;;4.82;4.32;;;;;;;;;;5140014;27;20292;-63
2024/01/21 02:45:36;;;;;;;4.70;4.30;;;;;;;;;;5139999;27;20457;-63
2024/01/21 02:48:03;;;;;;;4.15;3.80;;;;;;;;;;5140046;27;20496;-64
2024/01/21 02:50:31;;;;;;;4.82;4.40;;;;;;;;;;5140201;27;20297;-63
2024/01/21 02:52:59;;;;;;;4.57;4.18;;;;;;;;;;5139859;27;20231;-63
2024/01/21 02:55:27;;;;;;;4.85;4.35;;;;;;;;;;5139931;27;20267;-63
2024/01/21 02:57:56;;;;;;;4.53;3.78;;;;;;;;;;5140401;27;20228;-63
2024/01/21 03:00:24;;;;;;;4.53;4.13;;;;;;;;;;5139143;27;20249;-64
2024/01/21 03:02:52;;;;;;;4.60;4.20;;;;;;;;;;5139984;27;20213;-63
2024/01/21 03:05:20;;;;;;;4.55;4.15;;;;;;;;;;5139645;27;20225;-63
2024/01/21 03:07:48;;;;;;;4.50;4.10;;;;;;;;;;5139666;27;20624;-64
2024/01/21 03:10:16;;;;;;;4.47;4.05;;;;;;;;;;5139991;27;20646;-63
2024/01/21 03:12:44;;;;;;;4.40;4.00;;;;;;;;;;5139427;27;20213;-63
2024/01/21 03:15:13;;;;;;;4.57;4.18;;;;;;;;;;5139485;27;20205;-63
2024/01/21 03:17:40;;;;;;;4.25;3.95;;;;;;;;;;5139337;27;20482;-63
2024/01/21 03:20:09;;;;;;;4.05;3.70;;;;;;;;;;5139149;27;20229;-63
2024/01/21 03:22:38;;;;;;;4.40;4.00;;;;;;;;;;5139568;27;20273;-63
2024/01/21 03:25:06;;;;;;;4.13;3.72;;;;;;;;;;5138560;27;20604;-63
2024/01/21 03:27:34;;;;;;;3.88;3.45;;;;;;;;;;5139133;27;20554;-63
2024/01/21 03:30:01;;;;;;;4.18;3.78;;;;;;;;;;5138874;27;20238;-63
2024/01/21 03:32:30;;;;;;;3.85;3.55;;;;;;;;;;5139340;27;20206;-63
2024/01/21 03:34:58;;;;;;;4.50;4.10;;;;;;;;;;5139307;27;20257;-63
2024/01/21 03:37:25;;;;;;;4.45;3.95;;;;;;;;;;5139063;27;20506;-63
2024/01/21 03:39:52;;;;;;;4.10;3.80;;;;;;;;;;5139340;27;20199;-63
2024/01/21 03:42:20;;;;;;;3.83;3.53;;;;;;;;;;5139019;27;20268;-63
2024/01/21 03:44:49;;;;;;;4.13;3.72;;;;;;;;;;5138817;27;20233;-63
2024/01/21 03:47:17;;;;;;;4.72;3.70;;;;;;;;;;5139114;27;20202;-63
2024/01/21 03:49:46;;;;;;;3.65;3.35;;;;;;;;;;5139005;27;20659;-63
2024/01/21 03:52:14;;;;;;;3.55;3.25;;;;;;;;;;5138708;27;20238;-63
2024/01/21 03:54:41;;;;;;;4.38;3.40;;;;;;;;;;5138521;27;20198;-63
2024/01/21 03:57:09;;;;;;;4.43;3.70;;;;;;;;;;5138784;27;20257;-63
2024/01/21 03:59:37;;;;;;;4.03;3.63;;;;;;;;;;5138687;27;20210;-63
2024/01/21 04:02:05;;;;;;;4.20;3.80;;;;;;;;;;5138952;27;20241;-63
2024/01/21 04:04:33;;;;;;;3.75;3.35;;;;;;;;;;5138927;27;20226;-63
2024/01/21 04:07:02;;;;;;;3.80;3.50;;;;;;;;;;5138799;27;20201;-63
2024/01/21 04:09:31;;;;;;;3.90;3.50;;;;;;;;;;5138782;27;20594;-63
2024/01/21 04:11:58;;;;;;;3.92;3.33;;;;;;;;;;5137696;27;20458;-63
2024/01/21 04:14:26;;;;;;;3.80;3.47;;;;;;;;;;5138481;27;20211;-63
2024/01/21 04:16:54;;;;;;;4.38;3.67;;;;;;;;;;5138319;27;20202;-63
2024/01/21 04:19:22;;;;;;;3.65;3.35;;;;;;;;;;5138321;27;20613;-63
2024/01/21 04:21:49;;;;;;;3.50;3.20;;;;;;;;;;5138692;27;20233;-63
2024/01/21 04:24:18;;;;;;;3.65;3.35;;;;;;;;;;5138502;27;20271;-63
2024/01/21 04:26:46;;;;;;;3.55;3.25;;;;;;;;;;5138278;28;20509;-63
2024/01/21 04:29:14;;;;;;;4.03;3.70;;;;;;;;;;5138342;27;20263;-63
2024/01/21 04:31:44;;;;;;;3.95;3.65;;;;;;;;;;5138313;27;20217;-63
2024/01/21 04:34:12;;;;;;;3.75;3.45;;;;;;;;;;5138230;27;20237;-63
2024/01/21 04:36:40;;;;;;;3.53;3.22;;;;;;;;;;5138453;27;20206;-63
2024/01/21 04:39:07;;;;;;;3.45;3.15;;;;;;;;;;5138099;27;20542;-63
2024/01/21 04:41:36;;;;;;;3.63;3.10;;;;;;;;;;5138431;28;20202;-63
2024/01/21 04:44:04;;;;;;;3.40;3.10;;;;;;;;;;5138516;27;20233;-63
2024/01/21 04:46:31;;;;;;;3.35;3.05;;;;;;;;;;5138158;28;20202;-63
2024/01/21 04:48:59;;;;;;;3.65;3.35;;;;;;;;;;5138197;27;20202;-63
2024/01/21 04:51:26;;;;;;;3.35;3.05;;;;;;;;;;5138460;28;20202;-63
2024/01/21 04:53:54;;;;;;;3.40;3.10;;;;;;;;;;5138266;27;20206;-64
2024/01/21 04:56:21;;;;;;;3.42;3.13;;;;;;;;;;5138143;27;20202;-63
2024/01/21 04:58:50;;;;;;;3.53;3.22;;;;;;;;;;5138375;28;20209;-63
2024/01/21 05:01:18;;;;;;;3.90;3.28;;;;;;;;;;5138228;27;20238;-63
2024/01/21 05:03:45;;;;;;;3.47;2.90;;;;;;;;;;5138081;27;20210;-63
2024/01/21 05:06:12;;;;;;;3.42;3.13;;;;;;;;;;5138251;27;20230;-63
2024/01/21 05:08:39;;;;;;;3.60;3.00;;;;;;;;;;5138162;28;20218;-63
2024/01/21 05:11:07;;;;;;;3.25;2.90;;;;;;;;;;5138282;27;20202;-64
2024/01/21 05:13:35;;;;;;;3.88;3.47;;;;;;;;;;5138312;27;20202;-63
2024/01/21 05:16:04;;;;;;;3.08;2.78;;;;;;;;;;5137901;28;20283;-63
2024/01/21 05:18:32;;;;;;;3.30;3.00;;;;;;;;;;5138077;27;20214;-63
2024/01/21 05:20:59;;;;;;;2.80;2.50;;;;;;;;;;5137950;27;20202;-63
2024/01/21 05:23:27;;;;;;;3.40;3.10;;;;;;;;;;5139657;27;20230;-63
2024/01/21 05:25:54;;;;;;;3.58;3.28;;;;;;;;;;5141836;27;20226;-63
2024/01/21 05:28:22;;;;;;;3.30;3.00;;;;;;;;;;5141675;27;20210;-63
2024/01/21 05:30:49;;;;;;;3.60;3.30;;;;;;;;;;5141771;27;20209;-64
2024/01/21 05:33:18;;;;;;;3.33;3.03;;;;;;;;;;5141800;27;20203;-64
2024/01/21 05:35:46;;;;;;;3.35;3.05;;;;;;;;;;5141848;27;20416;-63
2024/01/21 05:38:13;;;;;;;3.67;3.15;;;;;;;;;;5141619;27;20213;-63
2024/01/21 05:40:41;;;;;;;3.25;2.95;;;;;;;;;;5141007;27;20224;-63
2024/01/21 05:43:09;;;;;;;3.63;3.33;;;;;;;;;;5141593;27;20216;-63
2024/01/21 05:45:36;;;;;;;3.40;3.10;;;;;;;;;;5141748;27;20321;-63
2024/01/21 05:48:03;;;;;;;3.60;3.30;;;;;;;;;;5141641;27;20502;-63
2024/01/21 05:50:32;;;;;;;3.40;3.10;;;;;;;;;;5141224;27;20221;-63
2024/01/21 05:53:00;;;;;;;3.88;3.35;;;;;;;;;;5141419;27;20202;-63
2024/01/21 05:55:27;;;;;;;3.65;3.35;;;;;;;;;;5140997;27;20245;-63
2024/01/21 05:57:55;;;;;;;3.63;3.33;;;;;;;;;;5141362;27;20206;-63
2024/01/21 06:00:23;;;;;;;3.35;3.05;;;;;;;;;;5140911;27;20230;-63
2024/01/21 06:02:50;;;;;;;3.25;2.95;;;;;;;;;;5141284;27;20213;-63
2024/01/21 06:05:17;;;;;;;3.45;2.90;;;;;;;;;;5140722;27;20614;-63
2024/01/21 06:07:46;;;;;;;3.63;3.33;;;;;;;;;;5141023;27;20611;-63
2024/01/21 06:10:14;;;;;;;3.38;3.08;;;;;;;;;;5141549;27;20202;-63
2024/01/21 06:12:41;;;;;;;3.30;3.00;;;;;;;;;;5141250;27;20206;-63
2024/01/21 06:15:09;;;;;;;3.50;3.20;;;;;;;;;;5141149;27;20210;-63
2024/01/21 06:17:36;;;;;;;3.42;3.13;;;;;;;;;;5140922;27;20540;-63
2024/01/21 06:20:04;;;;;;;3.75;3.40;;;;;;;;;;5140844;27;20209;-63
2024/01/21 06:22:32;;;;;;;3.30;3.00;;;;;;;;;;5140515;27;20213;-63
2024/01/21 06:25:00;;;;;;;3.58;3.28;;;;;;;;;;5140332;27;20232;-63
2024/01/21 06:27:28;;;;;;;3.70;3.40;;;;;;;;;;5140544;27;20605;-63
2024/01/21 06:29:55;;;;;;;3.47;3.17;;;;;;;;;;5140273;27;20202;-64
2024/01/21 06:32:23;;;;;;;3.53;3.22;;;;;;;;;;5140446;27;20208;-63
2024/01/21 06:34:50;;;;;;;3.72;3.40;;;;;;;;;;5139670;27;20209;-63
2024/01/21 06:37:18;;;;;;;3.60;3.30;;;;;;;;;;5140666;27;20213;-63
2024/01/21 06:39:45;;;;;;;3.60;3.30;;;;;;;;;;5140519;27;20212;-63
2024/01/21 06:42:14;;;;;;;3.60;3.30;;;;;;;;;;5140122;27;20237;-63
2024/01/21 06:44:41;;;;;;;3.22;2.92;;;;;;;;;;5140510;27;20218;-63
2024/01/21 06:47:09;;;;;;;3.85;3.55;;;;;;;;;;5140252;27;20210;-63
2024/01/21 06:49:36;;;;;;;3.45;3.15;;;;;;;;;;5139983;27;20228;-63
2024/01/21 06:52:07;;;;;;;3.60;3.30;;;;;;;;;;5140572;27;20216;-63
2024/01/21 06:54:34;;;;;;;3.78;3.47;;;;;;;;;;5140146;27;20297;-63
2024/01/21 06:57:02;;;;;;;3.38;3.03;;;;;;;;;;5140223;27;20563;-63
2024/01/21 06:59:30;;;;;;;4.25;3.40;;;;;;;;;;5139926;27;20202;-63
2024/01/21 07:01:57;;;;;;;3.40;3.10;;;;;;;;;;5139763;27;20238;-63
2024/01/21 07:04:25;;;;;;;3.50;3.20;;;;;;;;;;5139538;27;20490;-63
2024/01/21 07:06:52;;;;;;;3.70;3.40;;;;;;;;;;5140086;27;20213;-63
2024/01/21 07:09:20;;;;;;;3.40;3.10;;;;;;;;;;5140000;27;20259;-63
2024/01/21 07:11:47;;;;;;;3.97;3.58;;;;;;;;;;5139792;27;20501;-63
2024/01/21 07:14:16;;;;;;;3.80;3.50;;;;;;;;;;5139988;27;20202;-63
2024/01/21 07:16:45;;;;;;;3.80;3.40;;;;;;;;;;5139765;27;20202;-63
2024/01/21 07:19:12;;;;;;;3.97;3.60;;;;;;;;;;5139707;27;20202;-63
2024/01/21 07:21:40;;;;;;;4.00;3.60;;;;;;;;;;5139129;27;20201;-63
2024/01/21 07:24:07;;;;;;;3.65;3.35;;;;;;;;;;5139947;27;20290;-63
2024/01/21 07:26:35;;;;;;;4.40;3.97;;;;;;;;;;5139433;27;20238;-63
2024/01/21 07:29:02;;;;;;;3.90;3.60;;;;;;;;;;5139418;27;20229;-63
2024/01/21 07:31:30;;;;;;;4.00;3.70;;;;;;;;;;5139165;27;20571;-63
2024/01/21 07:33:58;;;;;;;4.35;3.95;;;;;;;;;;5139253;27;20206;-63
2024/01/21 07:36:26;;;;;;;4.45;4.05;;;;;;;;;;5139318;27;20472;-63
2024/01/21 07:38:53;;;;;;;4.40;4.00;;;;;;;;;;5139240;27;20629;-63
2024/01/21 07:41:20;;;;;;;3.88;3.50;;;;;;;;;;5139285;27;20202;-63
2024/01/21 07:43:48;;;;;;;4.03;3.58;;;;;;;;;;5139151;27;20214;-63
2024/01/21 07:46:15;;;;;;;4.65;4.25;;;;;;;;;;5138844;27;20226;-63
2024/01/21 07:48:42;;;;;;;4.07;3.78;;;;;;;;;;5138939;27;20197;-63
2024/01/21 07:51:11;;;;;;;4.43;4.03;;;;;;;;;;5139132;27;20221;-63
2024/01/21 07:53:38;;;;;;;4.65;4.25;;;;;;;;;;5138722;27;20202;-63
2024/01/21 07:56:06;;;;;;;4.18;3.78;;;;;;;;;;5139164;27;20199;-63
2024/01/21 07:58:34;;;;;;;4.32;3.92;;;;;;;;;;5138819;27;20633;-63
2024/01/21 08:01:01;;;;;;;3.97;3.63;;;;;;;;;;5138348;27;20236;-63
2024/01/21 08:03:28;;;;;;;4.20;3.80;;;;;;;;;;5138362;27;20213;-63
2024/01/21 08:05:56;;;;;;;4.40;4.00;;;;;;;;;;5138527;27;20610;-63
2024/01/21 08:08:25;;;;;;;3.92;3.53;;;;;;;;;;5138837;27;20210;-63
2024/01/21 08:10:53;;;;;;;4.32;3.92;;;;;;;;;;5138695;27;20217;-63
2024/01/21 08:13:20;;;;;;;4.70;4.28;;;;;;;;;;5138234;27;20213;-63
2024/01/21 08:15:47;;;;;;;4.43;4.03;;;;;;;;;;5138159;27;20217;-63
2024/01/21 08:18:18;;;;;;;4.43;4.03;;;;;;;;;;5138242;27;20288;-63
2024/01/21 08:20:45;;;;;;;4.30;3.90;;;;;;;;;;5138599;27;20600;-63
2024/01/21 08:23:13;;;;;;;4.72;3.92;;;;;;;;;;5138371;27;20212;-63
2024/01/21 08:25:42;;;;;;;4.13;3.72;;;;;;;;;;5137593;27;20229;-63
2024/01/21 08:28:09;;;;;;;4.13;3.83;;;;;;;;;;5137530;27;20203;-63
2024/01/21 08:30:37;;;;;;;4.35;3.95;;;;;;;;;;5138188;28;20612;-63
2024/01/21 08:33:04;;;;;;;4.38;3.97;;;;;;;;;;5137731;28;20198;-63
2024/01/21 08:35:31;;;;;;;4.43;4.03;;;;;;;;;;5137786;28;20199;-63
2024/01/21 08:38:00;;;;;;;4.35;3.95;;;;;;;;;;5139136;28;20225;-63
2024/01/21 08:40:27;;;;;;;4.07;3.67;;;;;;;;;;5138332;27;20208;-63
2024/01/21 08:42:56;;;;;;;4.13;3.72;;;;;;;;;;5138359;27;20211;-63
2024/01/21 08:45:23;;;;;;;4.28;3.88;;;;;;;;;;5137952;27;20222;-63
2024/01/21 08:47:50;;;;;;;3.88;3.50;;;;;;;;;;5138561;28;20474;-64
2024/01/21 08:50:18;;;;;;;4.18;3.78;;;;;;;;;;5138312;27;20217;-63
2024/01/21 08:52:46;;;;;;;4.28;3.88;;;;;;;;;;5137640;27;20202;-63
2024/01/21 08:55:13;;;;;;;3.95;3.65;;;;;;;;;;5137681;27;20203;-63
2024/01/21 08:57:40;;;;;;;3.90;3.60;;;;;;;;;;5139104;27;20213;-63
2024/01/21 09:00:10;;;;;;;4.00;3.60;;;;;;;;;;5141523;27;20281;-63
2024/01/21 09:02:37;;;;;;;4.38;3.70;;;;;;;;;;5142293;27;20540;-63
2024/01/21 09:05:05;;;;;;;3.67;3.38;;;;;;;;;;5142024;27;20207;-63
2024/01/21 09:07:33;;;;;;;4.07;3.78;;;;;;;;;;5141939;27;20239;-63
2024/01/21 09:10:03;;;;;;;4.32;3.92;;;;;;;;;;5142385;27;20598;-63
2024/01/21 09:12:31;;;;;;;4.13;3.63;;;;;;;;;;5141878;27;20194;-63
2024/01/21 09:14:58;;;;;;;3.90;3.60;;;;;;;;;;5141639;27;20203;-63
2024/01/21 09:17:28;;;;;;;4.20;3.80;;;;;;;;;;5141631;27;20202;-63
2024/01/21 09:19:55;;;;;;;4.28;3.92;;;;;;;;;;5141685;27;20214;-63
2024/01/21 09:22:22;;;;;;;4.60;3.55;;;;;;;;;;5141678;27;20202;-63
2024/01/21 09:24:50;;;;;;;5.70;3.80;;;;;;;;;;5141945;27;20476;-63
2024/01/21 09:27:17;;;;;;;4.25;3.85;;;;;;;;;;5141453;27;20236;-63
2024/01/21 09:29:45;;;;;;;5.20;4.70;;;;;;;;;;5141039;27;20202;-63
2024/01/21 09:32:12;;;;;;;14.68;12.45;;;;;;;;;;5141191;27;20198;-63
2024/01/21 09:34:43;;;;;;;24.75;21.90;;;;;;;;;;5141170;27;20203;-63
2024/01/21 09:37:10;;;;;;;20.95;18.45;;;;;;;;;;5141005;27;20574;-63
2024/01/21 09:39:38;;;;;;;17.95;16.05;;;;;;;;;;5141568;27;20267;-63
2024/01/21 09:42:07;;;;;;;18.95;16.55;;;;;;;;;;5141496;27;20263;-63
2024/01/21 09:44:34;;;;;;;16.50;14.70;;;;;;;;;;5140960;27;20214;-63
2024/01/21 09:47:02;;;;;;;15.40;13.80;;;;;;;;;;5140104;27;20230;-63
2024/01/21 09:49:31;;;;;;;14.15;12.65;;;;;;;;;;5140926;27;20239;-63
2024/01/21 09:52:00;;;;;;;15.13;12.68;;;;;;;;;;5140060;27;20228;-63
2024/01/21 09:54:27;;;;;;;15.65;12.20;;;;;;;;;;5140522;27;20209;-63
2024/01/21 09:56:55;;;;;;;14.55;11.88;;;;;;;;;;5140855;27;20198;-64
2024/01/21 09:59:22;;;;;;;13.80;11.70;;;;;;;;;;5140713;27;20274;-63
2024/01/21 10:01:50;;;;;;;16.50;13.02;;;;;;;;;;5140605;27;20230;-63
2024/01/21 10:04:19;;;;;;;40.22;29.10;;;;;;;;;;5140327;27;20593;-63
2024/01/21 10:06:47;;;;;;;42.03;31.52;;;;;;;;;;5140640;27;20251;-63
2024/01/21 10:09:17;;;;;;;37.20;27.90;;;;;;;;;;5139791;27;20519;-63
2024/01/21 10:11:45;;;;;;;36.78;27.90;;;;;;;;;;5140278;27;20294;-63
2024/01/21 10:14:12;;;;;;;33.50;25.33;;;;;;;;;;5140121;27;20202;-63
2024/01/21 10:16:43;;;;;;;36.30;26.10;;;;;;;;;;5140615;27;20198;-64
2024/01/21 10:19:13;;;;;;;30.98;24.35;;;;;;;;;;5140307;27;20241;-63
2024/01/21 10:21:40;;;;;;;33.25;24.83;;;;;;;;;;5140036;27;20251;-64
2024/01/21 10:24:09;;;;;;;32.35;24.13;;;;;;;;;;5140422;27;20202;-63
2024/01/21 10:26:38;;;;;;;30.13;24.10;;;;;;;;;;5140110;27;20261;-63
2024/01/21 10:29:05;;;;;;;25.27;21.02;;;;;;;;;;5140224;27;20209;-63
2024/01/21 10:31:34;;;;;;;28.45;21.90;;;;;;;;;;5140260;27;20348;-63
2024/01/21 10:34:03;;;;;;;25.77;20.50;;;;;;;;;;5140121;27;20210;-63
2024/01/21 10:36:33;;;;;;;28.23;20.88;;;;;;;;;;5140349;27;20203;-63
2024/01/21 10:39:03;;;;;;;24.60;19.90;;;;;;;;;;5140418;27;20211;-63
2024/01/21 10:41:31;;;;;;;26.52;19.55;;;;;;;;;;5139697;27;20203;-64
2024/01/21 10:44:02;;;;;;;24.17;18.20;;;;;;;;;;5139490;27;20213;-64
2024/01/21 10:46:32;;;;;;;21.98;18.15;;;;;;;;;;5139558;27;20226;-64
2024/01/21 10:48:59;;;;;;;22.67;17.30;;;;;;;;;;5139419;27;20229;-63
2024/01/21 10:51:27;;;;;;;21.33;16.33;;;;;;;;;;5139609;27;20202;-63
2024/01/21 10:53:55;;;;;;;22.45;17.13;;;;;;;;;;5139499;27;20202;-64
2024/01/21 10:56:23;;;;;;;19.45;15.98;;;;;;;;;;5139896;27;20199;-63
2024/01/21 10:58:51;;;;;;;18.05;15.43;;;;;;;;;;5139895;27;20298;-63
2024/01/21 11:01:20;;;;;;;20.48;15.75;;;;;;;;;;5139123;27;20240;-63
2024/01/21 11:03:50;;;;;;;18.30;15.32;;;;;;;;;;5139526;27;20202;-63
2024/01/21 11:06:18;;;;;;;18.00;14.63;;;;;;;;;;5139397;27;20317;-63
2024/01/21 11:08:45;;;;;;;19.65;14.65;;;;;;;;;;5139409;27;20237;-63
2024/01/21 11:11:17;;;;;;;17.88;14.70;;;;;;;;;;5139440;27;20240;-63
2024/01/21 11:13:45;;;;;;;19.58;14.65;;;;;;;;;;5138823;27;20821;-63
2024/01/21 11:16:14;;;;;;;21.73;16.40;;;;;;;;;;5138743;27;20206;-63
2024/01/21 11:18:44;;;;;;;31.10;25.15;;;;;;;;;;5138320;27;20210;-63
2024/01/21 11:21:15;;;;;;;25.88;21.55;;;;;;;;;;5138707;27;20202;-63
2024/01/21 11:23:42;;;;;;;27.02;22.20;;;;;;;;;;5138571;27;20291;-63
2024/01/21 11:26:20;;;;;;;24.70;21.25;;;;;;;;;;5139424;27;20218;-63
2024/01/21 11:28:47;;;;;;;25.42;21.02;;;;;;;;;;5138628;27;20202;-63
2024/01/21 11:31:15;;;;;;;28.63;24.27;;;;;;;;;;5138801;27;20212;-63
2024/01/21 11:33:44;;;;;;;27.70;24.88;;;;;;;;;;5138585;27;20225;-63
2024/01/21 11:36:12;;;;;;;26.17;22.98;;;;;;;;;;5138352;27;20209;-63
2024/01/21 11:38:43;;;;;;;24.42;21.90;;;;;;;;;;5138708;27;20198;-63
2024/01/21 11:41:11;;;;;;;25.15;22.20;;;;;;;;;;5138841;27;20213;-63
2024/01/21 11:43:38;;;;;;;24.30;21.73;;;;;;;;;;5138407;27;20194;-63
2024/01/21 11:46:06;;;;;;;23.15;20.25;;;;;;;;;;5138925;27;20488;-64
2024/01/21 11:48:34;;;;;;;21.98;19.67;;;;;;;;;;5137619;27;20207;-63
2024/01/21 11:51:02;;;;;;;21.52;19.33;;;;;;;;;;5137699;27;20213;-63
2024/01/21 11:53:30;;;;;;;22.05;19.75;;;;;;;;;;5137739;27;20202;-63
2024/01/21 11:56:02;;;;;;;20.52;18.33;;;;;;;;;;5137481;27;20202;-63
2024/01/21 11:58:31;;;;;;;20.25;18.25;;;;;;;;;;5138516;27;20203;-63
2024/01/21 12:00:58;;;;;;;19.48;17.23;;;;;;;;;;5137489;27;20630;-63
2024/01/21 12:03:25;;;;;;;18.95;16.98;;;;;;;;;;5138270;27;20232;-64
2024/01/21 12:05:53;;;;;;;18.65;16.63;;;;;;;;;;5138194;27;20590;-64
2024/01/21 12:08:22;;;;;;;16.65;14.85;;;;;;;;;;5138940;27;20567;-64
2024/01/21 12:10:49;;;;;;;17.67;15.88;;;;;;;;;;5137953;27;20594;-63
2024/01/21 12:13:17;;;;;;;17.13;15.32;;;;;;;;;;5137920;27;20760;-64
2024/01/21 12:15:44;;;;;;;16.67;14.98;;;;;;;;;;5138204;27;20198;-63
2024/01/21 12:18:14;;;;;;;16.73;15.02;;;;;;;;;;5137779;27;20464;-63
2024/01/21 12:20:41;;;;;;;16.35;14.68;;;;;;;;;;5138057;27;20214;-63
2024/01/21 12:23:09;;;;;;;15.02;13.43;;;;;;;;;;5137685;27;20210;-63
2024/01/21 12:25:38;;;;;;;15.35;13.85;;;;;;;;;;5138070;27;20293;-63
2024/01/21 12:28:06;;;;;;;14.85;13.23;;;;;;;;;;5137991;27;20232;-63
2024/01/21 12:30:34;;;;;;;13.98;12.55;;;;;;;;;;5138026;27;20208;-63
2024/01/21 12:33:01;;;;;;;13.82;12.43;;;;;;;;;;5136965;27;20288;-63
2024/01/21 12:35:29;;;;;;;13.35;12.05;;;;;;;;;;5137514;27;20206;-63
2024/01/21 12:37:56;;;;;;;12.45;11.25;;;;;;;;;;5138025;27;20198;-63
2024/01/21 12:40:25;;;;;;;12.98;11.68;;;;;;;;;;5138043;27;20210;-63
2024/01/21 12:42:54;;;;;;;13.57;11.52;;;;;;;;;;5137153;28;20197;-63
2024/01/21 12:45:22;;;;;;;12.98;11.25;;;;;;;;;;5137528;28;20221;-63
2024/01/21 12:47:49;;;;;;;11.73;10.57;;;;;;;;;;5137206;27;20233;-63
2024/01/21 12:50:16;;;;;;;11.63;10.43;;;;;;;;;;5137002;27;20209;-63
2024/01/21 12:52:44;;;;;;;11.20;10.10;;;;;;;;;;5136707;27;20492;-63
2024/01/21 12:55:12;;;;;;;11.30;10.02;;;;;;;;;;5137440;27;20199;-63
2024/01/21 12:57:39;;;;;;;10.85;9.77;;;;;;;;;;5137188;27;20202;-64
2024/01/21 13:00:09;;;;;;;11.00;9.90;;;;;;;;;;5137243;27;20203;-64
2024/01/21 13:02:38;;;;;;;10.60;9.57;;;;;;;;;;5137457;28;20198;-63
2024/01/21 13:05:06;;;;;;;10.45;9.35;;;;;;;;;;5137658;27;20293;-63
2024/01/21 13:07:33;;;;;;;10.93;9.13;;;;;;;;;;5137210;28;20226;-63
2024/01/21 13:10:01;;;;;;;9.30;8.43;;;;;;;;;;5137397;27;20217;-63
2024/01/21 13:12:28;;;;;;;9.27;8.38;;;;;;;;;;5137320;28;20202;-63
2024/01/21 13:14:55;;;;;;;8.63;7.82;;;;;;;;;;5136858;27;20202;-63
2024/01/21 13:17:24;;;;;;;9.25;8.35;;;;;;;;;;5137113;27;20203;-63
2024/01/21 13:19:52;;;;;;;9.13;7.88;;;;;;;;;;5136790;27;20220;-63
2024/01/21 13:22:19;;;;;;;8.82;8.00;;;;;;;;;;5136413;28;20198;-63
2024/01/21 13:24:47;;;;;;;8.48;7.68;;;;;;;;;;5135611;27;20476;-63
2024/01/21 13:27:26;;;;;;;7.85;7.05;;;;;;;;;;5136545;27;20232;-63
2024/01/21 13:32:40;;;;;;;7.40;6.70;;;;;;;;;;5136439;27;20815;-63
2024/01/21 13:35:08;;;;;;;8.10;7.30;;;;;;;;;;5136662;27;20198;-63
2024/01/21 13:37:36;;;;;;;7.65;6.95;;;;;;;;;;5137168;27;20265;-63
2024/01/21 13:40:04;;;;;;;7.65;6.90;;;;;;;;;;5136531;27;20210;-63
2024/01/21 13:42:31;;;;;;;7.20;6.53;;;;;;;;;;5136411;27;20292;-63
2024/01/21 13:44:58;;;;;;;7.30;6.60;;;;;;;;;;5138239;27;20578;-63
2024/01/21 13:47:26;;;;;;;7.15;6.45;;;;;;;;;;5139960;27;20241;-63
2024/01/21 13:49:55;;;;;;;6.70;6.07;;;;;;;;;;5139387;27;20198;-63
2024/01/21 13:52:22;;;;;;;6.38;5.78;;;;;;;;;;5140040;27;20302;-63
2024/01/21 13:54:50;;;;;;;6.32;5.65;;;;;;;;;;5140359;27;20198;-63
2024/01/21 13:57:18;;;;;;;6.60;5.93;;;;;;;;;;5139629;27;20206;-63
2024/01/21 13:59:45;;;;;;;6.22;5.63;;;;;;;;;;5139816;27;20202;-63
2024/01/21 14:02:12;;;;;;;6.82;6.20;;;;;;;;;;5139910;27;20226;-63
2024/01/21 14:04:40;;;;;;;6.10;5.50;;;;;;;;;;5140169;27;20245;-63
2024/01/21 14:07:09;;;;;;;5.80;5.30;;;;;;;;;;5139779;27;20229;-63
2024/01/21 14:09:36;;;;;;;5.95;5.45;;;;;;;;;;5139082;27;20609;-63
2024/01/21 14:12:03;;;;;;;6.28;5.68;;;;;;;;;;5139103;27;20202;-63
2024/01/21 14:14:31;;;;;;;6.10;5.50;;;;;;;;;;5139102;27;20229;-63
2024/01/21 14:16:59;;;;;;;6.63;5.75;;;;;;;;;;5139660;27;20194;-63
2024/01/21 14:19:26;;;;;;;6.35;5.75;;;;;;;;;;5139564;27;20202;-63
2024/01/21 14:21:54;;;;;;;6.07;5.47;;;;;;;;;;5139421;27;20467;-63
2024/01/21 14:24:23;;;;;;;7.03;5.45;;;;;;;;;;5139652;27;20210;-64
2024/01/21 14:26:51;;;;;;;5.78;5.18;;;;;;;;;;5139632;27;20202;-64
2024/01/21 14:29:22;;;;;;;6.45;5.93;;;;;;;;;;5139781;27;20506;-63
2024/01/21 14:31:50;;;;;;;6.47;5.88;;;;;;;;;;5139138;27;20247;-63
2024/01/21 14:34:17;;;;;;;5.90;5.40;;;;;;;;;;5138847;27;20233;-63
2024/01/21 14:36:45;;;;;;;5.93;5.35;;;;;;;;;;5139686;27;20531;-63
2024/01/21 14:39:12;;;;;;;5.78;5.28;;;;;;;;;;5139779;27;20213;-63
2024/01/21 14:41:41;;;;;;;5.80;5.30;;;;;;;;;;5139019;27;20263;-63